Time;durP1;ratioP1;P1;durP2;ratioP2;P2;SDS_P1;SDS_P2;PMS_P1;PMS_P2;Temp;Humidity;BMP_temperature;BMP_pressure;BME280_temperature;BME280_humidity;BME280_pressure;Samples;Min_cycle;Max_cycle;Signal;HPM_P1;HPM_P2
2023/09/29 00:01:27;;;;;;;16.33;6.43;;;16.00;99.90;;;;;;5015347;28;20103;-57
2023/09/29 00:03:53;;;;;;;23.45;7.63;;;16.00;99.90;;;;;;5019965;28;20048;-58
2023/09/29 00:06:19;;;;;;;22.23;7.07;;;16.00;99.90;;;;;;5020735;28;20045;-57
2023/09/29 00:08:45;;;;;;;20.13;6.60;;;16.00;99.90;;;;;;5031786;28;20059;-57
2023/09/29 00:11:16;;;;;;;23.23;6.60;;;16.00;99.90;;;;;;5017759;28;20439;-58
2023/09/29 00:13:41;;;;;;;19.17;7.40;;;16.00;99.90;;;;;;5016877;28;20061;-58
2023/09/29 00:16:07;;;;;;;16.08;6.70;;;16.00;99.90;;;;;;5013217;28;20610;-58
2023/09/29 00:18:33;;;;;;;18.60;6.20;;;16.00;99.90;;;;;;5016675;28;20098;-58
2023/09/29 00:20:59;;;;;;;17.02;6.30;;;16.00;99.90;;;;;;5013560;28;20049;-57
2023/09/29 00:23:25;;;;;;;18.27;7.20;;;16.00;99.90;;;;;;5002714;28;20397;-57
2023/09/29 00:25:50;;;;;;;17.50;7.40;;;16.00;99.90;;;;;;5038059;28;20040;-57
2023/09/29 00:28:16;;;;;;;23.52;7.60;;;16.00;99.90;;;;;;4995580;28;20072;-58
2023/09/29 00:30:42;;;;;;;22.77;7.82;;;16.00;99.90;;;;;;5000557;28;20037;-56
2023/09/29 00:33:08;;;;;;;19.15;6.97;;;16.00;99.90;;;;;;5012401;28;20071;-57
2023/09/29 00:35:34;;;;;;;21.52;6.70;;;16.00;99.90;;;;;;5002941;28;20056;-58
2023/09/29 00:38:00;;;;;;;19.33;7.28;;;16.00;99.90;;;;;;4986363;28;20044;-58
2023/09/29 00:40:27;;;;;;;19.08;7.07;;;16.00;99.90;;;;;;5035671;28;20419;-57
2023/09/29 00:42:53;;;;;;;15.55;6.50;;;16.00;99.90;;;;;;5014892;28;20404;-58
2023/09/29 00:45:23;;;;;;;20.05;6.43;;;16.00;99.90;;;;;;5014715;28;20051;-57
2023/09/29 00:47:52;;;;;;;19.42;6.65;;;16.00;99.90;;;;;;5014607;28;20044;-57
2023/09/29 00:50:21;;;;;;;16.67;6.22;;;16.00;99.90;;;;;;5016651;28;20044;-58
2023/09/29 00:52:49;;;;;;;16.27;6.03;;;16.00;99.90;;;;;;5016583;28;20130;-55
2023/09/29 00:55:17;;;;;;;14.98;5.97;;;16.00;99.90;;;;;;5017484;28;20290;-58
2023/09/29 00:57:48;;;;;;;19.80;6.28;;;16.00;99.90;;;;;;4998220;28;20045;-57
2023/09/29 01:00:21;;;;;;;19.63;6.57;;;16.00;99.90;;;;;;5018102;28;20187;-57
2023/09/29 01:02:48;;;;;;;25.77;6.40;;;15.90;99.90;;;;;;5021439;28;20060;-58
2023/09/29 01:05:14;;;;;;;18.55;6.53;;;15.90;99.90;;;;;;5013759;28;20051;-57
2023/09/29 01:07:42;;;;;;;15.02;5.40;;;15.90;99.90;;;;;;5033747;28;20033;-57
2023/09/29 01:10:13;;;;;;;13.18;5.03;;;15.90;99.90;;;;;;5014529;28;20128;-58
2023/09/29 01:12:43;;;;;;;17.98;5.82;;;15.90;99.90;;;;;;5006861;28;20128;-57
2023/09/29 01:15:13;;;;;;;20.15;6.03;;;15.90;99.90;;;;;;5018844;28;20053;-57
2023/09/29 01:17:43;;;;;;;18.13;5.95;;;15.90;99.90;;;;;;5015542;28;20453;-57
2023/09/29 01:20:27;;;;;;;19.10;5.30;;;15.90;99.90;;;;;;5039077;28;20492;-57
2023/09/29 01:22:53;;;;;;;15.70;5.32;;;15.90;99.90;;;;;;5021331;28;20044;-57
2023/09/29 01:25:19;;;;;;;18.10;5.60;;;15.90;99.90;;;;;;5022216;28;20033;-58
2023/09/29 01:27:45;;;;;;;14.43;5.47;;;15.90;99.90;;;;;;5021602;28;20051;-57
2023/09/29 01:30:14;;;;;;;16.10;4.88;;;15.90;99.90;;;;;;5036388;28;20352;-58
2023/09/29 01:32:46;;;;;;;14.45;5.53;;;15.90;99.90;;;;;;5016648;28;20042;-57
2023/09/29 01:35:11;;;;;;;14.27;5.22;;;15.90;99.90;;;;;;5018517;28;20064;-57
2023/09/29 01:37:42;;;;;;;17.08;5.90;;;15.90;99.90;;;;;;5019889;28;20492;-58
2023/09/29 01:40:09;;;;;;;17.50;5.57;;;15.90;99.90;;;;;;5020995;28;20052;-58
2023/09/29 01:42:35;;;;;;;18.27;4.80;;;15.90;99.90;;;;;;5037147;28;20748;-57
2023/09/29 01:45:05;;;;;;;15.18;5.13;;;15.90;99.90;;;;;;5019973;28;20041;-58
2023/09/29 01:47:31;;;;;;;15.93;5.70;;;15.90;99.90;;;;;;5020668;28;20061;-58
2023/09/29 01:49:57;;;;;;;17.17;5.45;;;15.90;99.90;;;;;;5018238;28;20041;-58
2023/09/29 01:52:23;;;;;;;18.52;5.97;;;15.90;99.90;;;;;;5016799;28;20060;-58
2023/09/29 01:54:53;;;;;;;17.17;6.15;;;15.90;99.90;;;;;;5015770;28;20537;-58
2023/09/29 01:57:19;;;;;;;19.85;6.30;;;15.90;99.90;;;;;;5019888;28;20132;-58
2023/09/29 01:59:44;;;;;;;19.83;6.13;;;15.90;99.90;;;;;;5002006;28;20464;-57
2023/09/29 02:02:10;;;;;;;21.10;5.55;;;16.00;99.90;;;;;;5018378;28;20042;-57
2023/09/29 02:04:36;;;;;;;16.30;5.43;;;16.00;99.90;;;;;;5015895;28;20048;-57
2023/09/29 02:07:20;;;;;;;26.60;6.07;;;16.00;99.90;;;;;;5002437;28;20167;-57
2023/09/29 02:09:46;;;;;;;17.15;5.63;;;16.00;99.90;;;;;;5013593;28;20041;-57
2023/09/29 02:12:14;;;;;;;12.57;5.63;;;16.00;99.90;;;;;;5000433;28;20051;-57
2023/09/29 02:14:39;;;;;;;14.20;5.55;;;16.00;99.90;;;;;;5005051;28;20059;-57
2023/09/29 02:17:06;;;;;;;21.80;6.07;;;16.00;99.90;;;;;;5016463;28;20041;-57
2023/09/29 02:19:35;;;;;;;14.02;5.03;;;16.00;99.90;;;;;;5017154;28;20531;-57
2023/09/29 02:22:03;;;;;;;15.43;5.15;;;16.00;99.90;;;;;;5016027;28;20552;-56
2023/09/29 02:24:29;;;;;;;20.77;5.97;;;16.00;99.90;;;;;;5022526;28;20081;-57
2023/09/29 02:26:55;;;;;;;18.35;6.13;;;16.00;99.90;;;;;;5012593;28;20037;-57
2023/09/29 02:29:21;;;;;;;16.30;5.85;;;16.00;99.90;;;;;;5005478;28;20052;-57
2023/09/29 02:31:46;;;;;;;13.77;5.05;;;16.10;99.90;;;;;;5017634;28;20124;-56
2023/09/29 02:34:15;;;;;;;12.93;5.57;;;16.00;99.90;;;;;;5019104;28;20048;-57
2023/09/29 02:36:40;;;;;;;13.10;5.07;;;16.00;99.90;;;;;;4984206;28;20057;-57
2023/09/29 02:39:08;;;;;;;15.98;5.03;;;16.10;99.90;;;;;;5000466;28;20043;-58
2023/09/29 02:41:35;;;;;;;15.55;5.05;;;16.10;99.90;;;;;;5019708;28;20045;-57
2023/09/29 02:44:01;;;;;;;19.60;5.63;;;16.10;99.90;;;;;;5033678;28;20043;-57
2023/09/29 02:46:27;;;;;;;16.02;5.18;;;16.10;99.90;;;;;;4998543;28;20192;-57
2023/09/29 02:48:53;;;;;;;18.95;5.30;;;16.10;99.90;;;;;;5010904;28;20049;-57
2023/09/29 02:51:19;;;;;;;15.50;5.50;;;16.10;99.90;;;;;;5033764;28;20116;-57
2023/09/29 02:53:49;;;;;;;14.68;4.40;;;16.00;99.90;;;;;;5017770;28;20049;-57
2023/09/29 02:56:16;;;;;;;16.52;5.18;;;16.10;99.90;;;;;;5014881;28;20343;-58
2023/09/29 02:58:43;;;;;;;13.73;4.55;;;16.10;99.90;;;;;;5033678;28;20116;-56
2023/09/29 03:01:12;;;;;;;18.20;4.93;;;16.10;99.90;;;;;;5008720;28;20049;-57
2023/09/29 03:03:40;;;;;;;16.58;4.80;;;16.10;99.90;;;;;;5013581;28;20073;-56
2023/09/29 03:06:06;;;;;;;12.48;4.10;;;16.10;99.90;;;;;;5018171;28;20044;-58
2023/09/29 03:08:33;;;;;;;17.60;5.53;;;16.10;99.90;;;;;;4996848;28;20106;-58
2023/09/29 03:10:59;;;;;;;14.80;4.88;;;16.10;99.90;;;;;;4988408;28;20053;-58
2023/09/29 03:13:24;;;;;;;16.92;4.68;;;16.10;99.90;;;;;;5014200;28;20044;-57
2023/09/29 03:15:51;;;;;;;12.10;4.07;;;16.10;99.90;;;;;;5016844;28;20041;-57
2023/09/29 03:18:17;;;;;;;16.63;4.72;;;16.10;99.90;;;;;;4993118;28;20228;-57
2023/09/29 03:20:43;;;;;;;12.48;4.10;;;16.20;99.90;;;;;;5014504;28;20098;-57
2023/09/29 03:23:08;;;;;;;13.57;4.60;;;16.20;99.90;;;;;;5013820;28;20037;-58
2023/09/29 03:25:34;;;;;;;23.35;4.85;;;16.20;99.90;;;;;;5005085;28;20122;-57
2023/09/29 03:28:00;;;;;;;19.27;4.80;;;16.20;99.90;;;;;;5015465;28;20366;-57
2023/09/29 03:30:26;;;;;;;18.23;4.80;;;16.30;99.90;;;;;;4985634;28;20045;-58
2023/09/29 03:32:52;;;;;;;11.52;4.05;;;16.30;99.90;;;;;;5017494;28;20042;-57
2023/09/29 03:35:18;;;;;;;11.13;3.70;;;16.30;99.90;;;;;;5021601;28;20128;-57
2023/09/29 03:37:45;;;;;;;18.73;4.43;;;16.30;99.90;;;;;;5023393;28;20179;-58
2023/09/29 03:40:13;;;;;;;18.40;4.75;;;16.30;99.90;;;;;;5041146;28;20041;-57
2023/09/29 03:42:41;;;;;;;10.90;4.55;;;16.30;99.90;;;;;;5023706;28;20048;-57
2023/09/29 03:45:09;;;;;;;16.75;4.78;;;16.30;99.90;;;;;;5009844;28;20416;-57
2023/09/29 03:47:35;;;;;;;17.45;4.35;;;16.40;99.90;;;;;;5008013;28;20064;-57
2023/09/29 03:50:01;;;;;;;16.02;4.15;;;16.40;99.90;;;;;;5006157;28;20456;-57
2023/09/29 03:52:29;;;;;;;10.82;3.83;;;16.40;99.90;;;;;;5025468;28;20527;-56
2023/09/29 03:54:56;;;;;;;14.82;4.38;;;16.40;99.90;;;;;;5017605;28;20037;-57
2023/09/29 03:57:22;;;;;;;16.95;4.50;;;16.40;99.90;;;;;;5042622;28;20048;-57
2023/09/29 03:59:47;;;;;;;19.45;4.47;;;16.40;99.90;;;;;;5023794;28;20117;-57
2023/09/29 04:02:13;;;;;;;14.65;4.28;;;16.40;99.90;;;;;;5025241;28;20405;-56
2023/09/29 04:04:39;;;;;;;13.65;4.40;;;16.40;99.90;;;;;;5026184;28;20038;-57
2023/09/29 04:07:05;;;;;;;16.23;4.80;;;16.50;99.90;;;;;;4990680;28;20033;-57
2023/09/29 04:09:31;;;;;;;17.92;4.18;;;16.50;99.90;;;;;;5017931;28;20048;-56
2023/09/29 04:11:56;;;;;;;20.67;4.57;;;16.50;99.90;;;;;;5015834;28;20043;-57
2023/09/29 04:14:22;;;;;;;13.75;4.22;;;16.50;99.90;;;;;;5020098;28;20056;-57
2023/09/29 04:16:48;;;;;;;21.90;5.40;;;16.60;99.90;;;;;;5037626;28;20650;-54
2023/09/29 04:19:14;;;;;;;14.07;4.53;;;16.60;99.90;;;;;;5017020;28;20049;-57
2023/09/29 04:21:40;;;;;;;14.70;4.43;;;16.60;99.90;;;;;;5021653;28;21395;-56
2023/09/29 04:24:06;;;;;;;11.82;4.03;;;16.60;99.90;;;;;;5000592;28;20037;-57
2023/09/29 04:26:31;;;;;;;14.85;4.60;;;16.60;99.90;;;;;;5014042;28;20033;-57
2023/09/29 04:28:57;;;;;;;12.32;5.00;;;16.70;99.90;;;;;;5000012;28;20032;-57
2023/09/29 04:31:23;;;;;;;16.45;4.85;;;16.70;99.90;;;;;;5019813;28;20067;-57
2023/09/29 04:33:49;;;;;;;15.93;3.65;;;16.70;99.90;;;;;;5004908;28;20102;-58
2023/09/29 04:36:14;;;;;;;12.95;4.07;;;16.80;99.90;;;;;;5020472;28;20095;-56
2023/09/29 04:38:43;;;;;;;13.63;3.97;;;16.80;99.90;;;;;;5030685;28;20116;-57
2023/09/29 04:41:09;;;;;;;16.45;4.78;;;16.80;99.90;;;;;;5014658;28;20096;-53
2023/09/29 04:43:35;;;;;;;13.00;4.20;;;16.90;99.90;;;;;;5013353;28;20572;-57
2023/09/29 04:46:00;;;;;;;17.38;4.47;;;16.90;99.90;;;;;;5019121;28;20061;-57
2023/09/29 04:48:27;;;;;;;17.15;4.53;;;16.90;99.90;;;;;;5017056;28;20336;-57
2023/09/29 04:50:54;;;;;;;13.60;3.65;;;16.90;99.90;;;;;;5016475;28;20492;-57
2023/09/29 04:53:20;;;;;;;17.65;4.57;;;16.90;99.90;;;;;;5011913;28;20052;-58
2023/09/29 04:55:46;;;;;;;11.50;3.53;;;16.90;99.90;;;;;;5016362;28;20041;-57
2023/09/29 04:58:11;;;;;;;11.60;4.28;;;16.90;99.90;;;;;;4999858;28;20048;-57
2023/09/29 05:00:37;;;;;;;12.68;4.20;;;16.90;99.90;;;;;;5020393;28;20120;-57
2023/09/29 05:03:03;;;;;;;13.70;4.78;;;16.90;99.90;;;;;;5020529;28;20400;-57
2023/09/29 05:05:29;;;;;;;13.70;5.28;;;16.90;99.90;;;;;;5027041;28;20657;-57
2023/09/29 05:07:56;;;;;;;16.50;5.00;;;16.90;99.90;;;;;;5017647;28;20555;-57
2023/09/29 05:10:22;;;;;;;20.98;5.32;;;16.90;99.90;;;;;;4999887;28;20025;-57
2023/09/29 05:12:47;;;;;;;17.73;5.75;;;16.90;99.90;;;;;;5022288;28;20190;-57
2023/09/29 05:15:13;;;;;;;15.63;4.63;;;16.80;99.90;;;;;;5018861;28;20507;-58
2023/09/29 05:17:39;;;;;;;12.35;4.63;;;16.80;99.90;;;;;;5018851;28;20041;-57
2023/09/29 05:20:05;;;;;;;12.52;4.75;;;16.90;99.90;;;;;;5007483;28;20036;-58
2023/09/29 05:22:32;;;;;;;11.95;4.55;;;16.80;99.90;;;;;;5016145;28;20097;-58
2023/09/29 05:25:01;;;;;;;15.88;5.20;;;16.80;99.90;;;;;;5019941;28;20098;-57
2023/09/29 05:27:31;;;;;;;15.05;4.63;;;16.80;99.90;;;;;;5018096;28;20124;-58
2023/09/29 05:29:57;;;;;;;13.60;4.60;;;16.80;99.90;;;;;;5015677;28;20037;-57
2023/09/29 05:32:24;;;;;;;13.73;4.85;;;16.80;99.90;;;;;;5011924;28;20045;-58
2023/09/29 05:34:50;;;;;;;12.15;5.57;;;16.80;99.90;;;;;;5021112;28;20132;-57
2023/09/29 05:37:16;;;;;;;18.08;5.82;;;16.80;99.90;;;;;;5003630;28;20506;-58
2023/09/29 05:39:42;;;;;;;18.25;4.93;;;16.80;99.90;;;;;;5022241;28;20037;-58
2023/09/29 05:42:08;;;;;;;13.05;6.20;;;16.80;99.90;;;;;;5016561;28;20083;-58
2023/09/29 05:44:34;;;;;;;15.77;5.22;;;16.80;99.90;;;;;;5014741;28;20040;-58
2023/09/29 05:46:59;;;;;;;16.08;5.70;;;16.80;99.90;;;;;;5033533;28;20043;-58
2023/09/29 05:49:25;;;;;;;19.30;5.95;;;16.80;99.90;;;;;;5019715;28;20041;-58
2023/09/29 05:51:51;;;;;;;14.77;5.20;;;16.80;99.90;;;;;;4999761;28;20043;-58
2023/09/29 05:54:17;;;;;;;17.70;5.53;;;16.80;99.90;;;;;;5017641;28;20049;-58
2023/09/29 05:56:42;;;;;;;15.95;5.97;;;16.70;99.90;;;;;;5005483;28;20082;-58
2023/09/29 05:59:09;;;;;;;15.25;4.97;;;16.70;99.90;;;;;;5017574;28;20045;-57
2023/09/29 06:01:34;;;;;;;13.70;5.63;;;16.70;99.90;;;;;;5027534;28;20049;-58
2023/09/29 06:04:00;;;;;;;12.98;5.10;;;16.70;99.90;;;;;;5014355;28;22345;-58
2023/09/29 06:06:26;;;;;;;18.63;6.50;;;16.70;99.90;;;;;;5016354;28;20037;-57
2023/09/29 06:08:52;;;;;;;13.98;5.50;;;16.70;99.90;;;;;;5021805;28;20119;-58
2023/09/29 06:11:17;;;;;;;16.75;5.28;;;16.70;99.90;;;;;;5013097;28;20051;-58
2023/09/29 06:13:43;;;;;;;12.13;4.85;;;16.70;99.90;;;;;;5003193;28;20037;-58
2023/09/29 06:16:09;;;;;;;15.38;4.97;;;16.70;99.90;;;;;;5018657;28;20485;-58
2023/09/29 06:18:35;;;;;;;15.98;5.55;;;16.70;99.90;;;;;;5016122;28;20052;-58
2023/09/29 06:21:01;;;;;;;16.58;5.30;;;16.70;99.90;;;;;;5014729;28;20041;-58
2023/09/29 06:23:27;;;;;;;14.57;5.07;;;16.70;99.90;;;;;;5022690;28;20404;-59
2023/09/29 06:25:57;;;;;;;16.73;5.45;;;16.70;99.90;;;;;;5019847;28;20346;-58
2023/09/29 06:28:23;;;;;;;17.05;5.32;;;16.70;99.90;;;;;;5012640;28;20079;-58
2023/09/29 06:30:52;;;;;;;11.57;5.35;;;16.70;99.90;;;;;;5022823;28;20044;-57
2023/09/29 06:33:18;;;;;;;12.57;5.00;;;16.80;99.90;;;;;;5011177;28;20055;-58
2023/09/29 06:35:44;;;;;;;11.75;5.07;;;16.80;99.90;;;;;;5027495;28;20048;-57
2023/09/29 06:38:09;;;;;;;14.07;5.15;;;16.80;99.90;;;;;;5023408;28;20591;-58
2023/09/29 06:40:35;;;;;;;11.10;4.18;;;16.80;99.90;;;;;;5021838;28;20045;-57
2023/09/29 06:43:01;;;;;;;12.25;4.85;;;16.80;99.90;;;;;;5002369;28;20051;-57
2023/09/29 06:45:29;;;;;;;13.35;5.57;;;16.90;99.90;;;;;;5014081;28;20037;-58
2023/09/29 06:47:55;;;;;;;13.18;4.78;;;16.90;99.90;;;;;;5014727;28;20125;-58
2023/09/29 06:50:22;;;;;;;12.13;5.05;;;16.90;99.90;;;;;;5003390;28;20287;-58
2023/09/29 06:52:48;;;;;;;10.25;5.00;;;16.90;99.90;;;;;;5019261;28;20125;-58
2023/09/29 06:55:13;;;;;;;14.75;5.38;;;17.00;99.90;;;;;;5016881;28;20048;-58
2023/09/29 06:57:40;;;;;;;12.73;5.28;;;17.00;99.90;;;;;;5012222;28;20107;-58
2023/09/29 07:00:08;;;;;;;15.13;6.32;;;17.00;99.90;;;;;;5014547;28;20048;-58
2023/09/29 07:02:34;;;;;;;11.30;5.70;;;17.00;99.90;;;;;;5017379;28;20037;-58
2023/09/29 07:05:01;;;;;;;16.42;6.30;;;17.10;99.90;;;;;;5014993;28;20057;-57
2023/09/29 07:07:27;;;;;;;19.40;6.30;;;17.10;99.90;;;;;;5001045;28;20131;-58
2023/09/29 07:09:53;;;;;;;13.57;6.50;;;17.10;99.90;;;;;;5036191;28;20445;-58
2023/09/29 07:12:19;;;;;;;16.15;6.80;;;17.10;99.90;;;;;;5017208;28;20041;-58
2023/09/29 07:14:45;;;;;;;15.98;7.57;;;17.20;99.90;;;;;;5001659;28;20067;-58
2023/09/29 07:17:11;;;;;;;20.33;8.00;;;17.20;99.90;;;;;;5010729;28;20080;-57
2023/09/29 07:19:36;;;;;;;22.98;8.55;;;17.20;99.90;;;;;;5019098;28;20041;-58
2023/09/29 07:22:02;;;;;;;18.75;9.07;;;17.30;99.90;;;;;;5000797;28;20045;-58
2023/09/29 07:24:28;;;;;;;19.42;9.40;;;17.30;99.90;;;;;;5001644;28;20433;-58
2023/09/29 07:26:54;;;;;;;19.55;9.93;;;17.40;99.90;;;;;;5015601;28;20033;-58
2023/09/29 07:29:19;;;;;;;22.60;10.55;;;17.40;99.90;;;;;;5014817;28;20504;-58
2023/09/29 07:31:47;;;;;;;23.77;11.18;;;17.40;99.90;;;;;;5002104;28;20425;-56
2023/09/29 07:34:16;;;;;;;25.00;12.20;;;17.40;99.90;;;;;;5019318;28;20059;-56
2023/09/29 07:36:46;;;;;;;22.25;12.15;;;17.50;99.90;;;;;;5002812;28;20045;-58
2023/09/29 07:39:15;;;;;;;24.95;12.65;;;17.60;99.90;;;;;;5030784;28;20041;-57
2023/09/29 07:41:41;;;;;;;25.23;13.45;;;17.60;99.90;;;;;;5015702;28;20037;-57
2023/09/29 07:44:08;;;;;;;25.92;13.05;;;17.70;99.90;;;;;;5015372;28;20048;-58
2023/09/29 07:46:35;;;;;;;23.10;12.57;;;17.70;99.90;;;;;;5035294;28;20068;-57
2023/09/29 07:49:02;;;;;;;22.40;12.07;;;17.80;99.90;;;;;;5019169;28;20077;-57
2023/09/29 07:51:28;;;;;;;21.65;12.65;;;17.80;99.90;;;;;;5006829;28;20053;-57
2023/09/29 07:53:54;;;;;;;22.80;11.65;;;17.80;99.90;;;;;;5023256;28;20047;-57
2023/09/29 07:56:20;;;;;;;24.63;12.45;;;17.90;99.90;;;;;;5021979;28;20045;-57
2023/09/29 07:58:46;;;;;;;20.58;11.27;;;17.90;99.90;;;;;;5008925;28;20104;-58
2023/09/29 08:01:11;;;;;;;23.80;11.77;;;18.00;99.90;;;;;;5021271;28;20137;-58
2023/09/29 08:03:37;;;;;;;24.77;12.13;;;18.00;99.90;;;;;;5001014;28;20506;-57
2023/09/29 08:06:04;;;;;;;24.33;11.60;;;18.00;99.90;;;;;;4986608;28;20045;-58
2023/09/29 08:08:30;;;;;;;22.30;11.50;;;18.10;99.90;;;;;;4996169;28;20516;-57
2023/09/29 08:10:56;;;;;;;21.30;10.38;;;18.20;99.90;;;;;;5015146;28;20052;-58
2023/09/29 08:13:23;;;;;;;21.65;11.38;;;18.20;99.90;;;;;;5012184;28;20044;-57
2023/09/29 08:15:49;;;;;;;27.33;11.95;;;18.30;99.90;;;;;;5018284;28;20145;-58
2023/09/29 08:18:17;;;;;;;24.40;11.63;;;18.30;99.90;;;;;;5014368;28;20076;-57
2023/09/29 08:20:43;;;;;;;19.60;10.80;;;18.40;99.90;;;;;;5046656;28;20556;-58
2023/09/29 08:23:09;;;;;;;24.48;11.90;;;18.50;99.90;;;;;;5023056;28;20116;-57
2023/09/29 08:25:35;;;;;;;23.27;11.10;;;18.50;99.90;;;;;;5050538;28;20136;-58
2023/09/29 08:28:03;;;;;;;21.08;11.10;;;18.50;99.90;;;;;;5030439;28;20048;-57
2023/09/29 08:30:29;;;;;;;21.73;11.27;;;18.50;99.90;;;;;;5010506;28;20033;-58
2023/09/29 08:32:55;;;;;;;21.17;10.50;;;18.60;99.90;;;;;;4995691;28;20044;-56
2023/09/29 08:35:21;;;;;;;18.38;9.82;;;18.60;99.90;;;;;;5030577;28;20048;-59
2023/09/29 08:37:47;;;;;;;19.95;9.77;;;18.70;99.90;;;;;;5024357;28;20493;-59
2023/09/29 08:40:16;;;;;;;17.70;9.07;;;18.70;99.90;;;;;;5024516;28;20077;-58
2023/09/29 08:42:49;;;;;;;19.10;7.70;;;18.80;99.90;;;;;;5021462;28;20040;-59
2023/09/29 08:45:17;;;;;;;14.50;8.23;;;18.80;99.90;;;;;;5040704;28;20492;-58
2023/09/29 08:47:49;;;;;;;18.70;9.18;;;18.80;99.90;;;;;;5005942;28;20477;-57
2023/09/29 08:50:16;;;;;;;13.73;7.50;;;18.90;99.90;;;;;;5025155;28;20044;-58
2023/09/29 08:52:46;;;;;;;12.13;6.95;;;18.90;99.90;;;;;;5032968;28;20049;-56
2023/09/29 08:55:13;;;;;;;11.32;6.35;;;19.00;99.90;;;;;;5025123;28;20037;-58
2023/09/29 08:57:41;;;;;;;11.68;5.45;;;19.10;99.90;;;;;;5022535;28;20090;-59
2023/09/29 09:00:14;;;;;;;13.05;5.25;;;19.20;99.90;;;;;;5018877;28;20048;-58
2023/09/29 09:02:41;;;;;;;12.93;5.72;;;19.30;99.90;;;;;;4998403;28;20048;-58
2023/09/29 09:05:10;;;;;;;9.52;4.53;;;19.40;99.90;;;;;;5016073;28;20257;-59
2023/09/29 09:07:38;;;;;;;12.18;5.22;;;19.40;99.90;;;;;;5034457;28;20048;-59
2023/09/29 09:10:04;;;;;;;9.98;4.68;;;19.50;99.90;;;;;;5015214;28;20041;-59
2023/09/29 09:12:35;;;;;;;7.75;4.28;;;19.50;99.90;;;;;;5012287;28;20049;-58
2023/09/29 09:15:03;;;;;;;8.13;4.88;;;19.50;99.90;;;;;;5002271;28;20626;-58
2023/09/29 09:17:30;;;;;;;10.80;4.53;;;19.50;99.90;;;;;;5016475;28;20042;-58
2023/09/29 09:19:56;;;;;;;7.30;4.53;;;19.50;99.90;;;;;;5019066;28;20058;-59
2023/09/29 09:22:24;;;;;;;8.38;4.00;;;19.50;99.90;;;;;;5016306;28;20405;-58
2023/09/29 09:24:56;;;;;;;10.15;4.60;;;19.60;99.90;;;;;;5018741;28;20106;-59
2023/09/29 09:27:22;;;;;;;7.80;4.03;;;19.60;99.90;;;;;;5031133;28;20131;-58
2023/09/29 09:29:47;;;;;;;9.45;4.13;;;19.70;99.90;;;;;;5021266;28;20091;-57
2023/09/29 09:32:14;;;;;;;8.45;3.58;;;19.60;99.90;;;;;;5034967;28;20045;-58
2023/09/29 09:34:42;;;;;;;6.70;3.80;;;19.60;99.90;;;;;;5004281;28;20131;-58
2023/09/29 09:37:10;;;;;;;10.05;4.50;;;19.70;99.90;;;;;;5035317;28;20102;-57
2023/09/29 09:39:38;;;;;;;8.40;3.83;;;19.80;99.90;;;;;;5020283;28;20056;-58
2023/09/29 09:42:05;;;;;;;9.13;3.72;;;19.80;99.90;;;;;;5020828;28;20060;-58
2023/09/29 09:44:32;;;;;;;7.85;3.97;;;19.80;99.90;;;;;;4999743;28;20326;-58
2023/09/29 09:47:02;;;;;;;8.43;4.07;;;19.90;99.90;;;;;;5035670;28;20060;-59
2023/09/29 09:49:38;;;;;;;8.35;4.05;;;19.90;99.90;;;;;;5018398;28;20064;-59
2023/09/29 09:52:12;;;;;;;7.75;4.07;;;19.90;99.90;;;;;;5036911;28;20043;-59
2023/09/29 09:54:54;;;;;;;;;;;19.80;99.90;;;;;;5019347;28;20068;-58
2023/09/29 09:57:33;;;;;;;8.05;3.75;;;19.80;99.90;;;;;;5018578;28;20367;-59
2023/09/29 10:00:19;;;;;;;7.50;4.35;;;19.70;99.90;;;;;;4996904;28;20135;-58
2023/09/29 10:02:48;;;;;;;12.20;4.70;;;19.70;99.90;;;;;;5000657;28;20060;-59
2023/09/29 10:05:24;;;;;;;7.68;3.92;;;19.80;99.90;;;;;;5014900;28;20859;-59
2023/09/29 10:07:53;;;;;;;8.27;4.38;;;19.70;99.90;;;;;;5014291;28;20029;-58
2023/09/29 10:10:31;;;;;;;9.38;4.03;;;19.70;99.90;;;;;;5015741;28;20049;-58
2023/09/29 10:12:58;;;;;;;7.25;3.85;;;19.80;99.90;;;;;;5014079;28;20041;-58
2023/09/29 10:15:29;;;;;;;11.50;4.85;;;19.80;99.90;;;;;;5011023;28;20047;-58
2023/09/29 10:18:13;;;;;;;8.90;4.22;;;20.00;99.90;;;;;;5008462;28;20388;-57
2023/09/29 10:20:39;;;;;;;7.95;4.05;;;20.10;99.90;;;;;;5013814;28;20508;-58
2023/09/29 10:23:07;;;;;;;10.45;4.25;;;20.10;99.90;;;;;;5002200;28;20663;-57
2023/09/29 10:25:38;;;;;;;8.27;4.57;;;20.20;99.90;;;;;;5038764;28;20183;-57
2023/09/29 10:28:07;;;;;;;7.10;4.32;;;20.10;99.90;;;;;;5016123;28;20033;-57
2023/09/29 10:30:35;;;;;;;9.68;4.15;;;20.10;99.90;;;;;;5021242;28;20944;-60
2023/09/29 10:33:11;;;;;;;12.55;4.60;;;20.10;99.90;;;;;;5018093;28;20075;-58
2023/09/29 10:35:45;;;;;;;9.40;4.45;;;20.10;99.90;;;;;;5019799;28;20564;-58
2023/09/29 10:38:23;;;;;;;8.45;4.45;;;20.10;99.90;;;;;;5014938;28;20056;-58
2023/09/29 10:40:50;;;;;;;9.32;4.93;;;20.10;99.90;;;;;;5035671;28;20373;-58
2023/09/29 10:43:22;;;;;;;9.10;4.22;;;20.10;99.90;;;;;;5021942;28;20077;-58
2023/09/29 10:45:50;;;;;;;9.05;5.32;;;20.10;99.90;;;;;;5041244;28;20049;-58
2023/09/29 10:48:23;;;;;;;9.80;5.15;;;20.10;99.90;;;;;;5034722;28;20570;-57
2023/09/29 10:50:49;;;;;;;11.20;5.07;;;20.10;99.90;;;;;;4999533;28;20496;-58
2023/09/29 10:53:17;;;;;;;7.47;4.80;;;20.10;99.90;;;;;;5017634;28;20132;-56
2023/09/29 10:55:54;;;;;;;12.27;4.93;;;20.10;99.90;;;;;;5031905;28;20051;-58
2023/09/29 10:58:21;;;;;;;13.40;5.35;;;20.10;99.90;;;;;;5017173;28;20100;-57
2023/09/29 11:00:48;;;;;;;9.30;4.78;;;20.10;99.90;;;;;;5015133;28;20045;-58
2023/09/29 11:03:32;;;;;;;8.18;4.47;;;20.20;99.90;;;;;;5000150;28;20056;-58
2023/09/29 11:05:58;;;;;;;;;;;20.30;99.90;;;;;;5002047;28;20052;-58
2023/09/29 11:08:34;;;;;;;10.18;4.72;;;20.20;99.90;;;;;;5012968;28;19928;-58
2023/09/29 11:11:02;;;;;;;7.38;4.45;;;20.20;99.90;;;;;;5027276;28;20080;-58
2023/09/29 11:13:29;;;;;;;10.35;5.15;;;20.20;99.90;;;;;;4999849;28;20053;-58
2023/09/29 11:15:56;;;;;;;9.13;4.95;;;20.20;99.90;;;;;;5008415;28;20127;-58
2023/09/29 11:18:34;;;;;;;10.13;4.80;;;20.30;99.90;;;;;;5016055;28;20052;-59
2023/09/29 11:21:08;;;;;;;7.40;4.88;;;20.20;99.90;;;;;;5000821;28;20138;-58
2023/09/29 11:23:46;;;;;;;11.35;5.70;;;20.20;99.90;;;;;;4999958;28;20480;-58
2023/09/29 11:26:13;;;;;;;7.80;3.83;;;20.20;99.90;;;;;;5018074;28;20450;-59
2023/09/29 11:28:43;;;;;;;5.55;2.20;;;19.90;99.90;;;;;;5016849;28;20448;-58
2023/09/29 11:31:10;;;;;;;3.42;1.75;;;19.60;99.90;;;;;;5009600;28;20044;-58
2023/09/29 11:33:37;;;;;;;3.55;1.50;;;19.30;99.90;;;;;;5015228;28;20113;-58
2023/09/29 11:36:23;;;;;;;3.30;1.60;;;19.10;99.90;;;;;;5018097;28;20041;-59
2023/09/29 11:38:52;;;;;;;3.95;1.42;;;19.00;99.90;;;;;;5013072;28;20057;-57
2023/09/29 11:41:18;;;;;;;4.97;1.60;;;18.80;99.90;;;;;;5012650;28;20044;-58
2023/09/29 11:43:45;;;;;;;4.20;1.73;;;18.70;99.90;;;;;;5016108;28;20171;-59
2023/09/29 11:46:14;;;;;;;8.80;2.75;;;18.50;99.90;;;;;;5016984;28;20047;-58
2023/09/29 11:48:40;;;;;;;5.43;2.60;;;18.50;99.90;;;;;;5013896;28;20044;-58
2023/09/29 11:51:08;;;;;;;5.43;1.90;;;18.40;99.90;;;;;;5014548;28;20128;-58
2023/09/29 11:53:34;;;;;;;4.38;1.80;;;18.40;99.90;;;;;;5033486;28;20118;-58
2023/09/29 11:56:00;;;;;;;9.15;2.05;;;18.20;99.90;;;;;;5013185;28;20045;-58
2023/09/29 11:58:26;;;;;;;7.05;2.22;;;18.10;99.90;;;;;;5013487;28;22243;-58
2023/09/29 12:00:52;;;;;;;6.80;1.70;;;18.00;99.90;;;;;;5015910;28;20049;-58
2023/09/29 12:03:21;;;;;;;6.10;2.17;;;17.80;99.90;;;;;;5001739;28;20040;-58
2023/09/29 12:05:51;;;;;;;7.93;2.40;;;17.80;99.90;;;;;;5016249;28;20046;-59
2023/09/29 12:08:17;;;;;;;6.95;2.33;;;17.80;99.90;;;;;;5017323;28;20044;-56
2023/09/29 12:10:44;;;;;;;6.35;2.17;;;17.80;99.90;;;;;;5000311;28;20033;-58
2023/09/29 12:13:12;;;;;;;8.07;1.88;;;17.80;99.90;;;;;;5015936;28;20148;-58
2023/09/29 12:15:38;;;;;;;5.53;1.40;;;17.70;99.90;;;;;;4995987;28;20505;-58
2023/09/29 12:18:04;;;;;;;5.25;1.42;;;17.50;99.90;;;;;;5031964;28;20041;-58
2023/09/29 12:20:30;;;;;;;7.28;2.03;;;17.40;99.90;;;;;;5005218;28;20049;-58
2023/09/29 12:22:59;;;;;;;5.78;1.60;;;17.40;99.90;;;;;;5033102;28;20463;-58
2023/09/29 12:25:24;;;;;;;5.57;1.33;;;17.40;99.90;;;;;;5019265;28;20049;-57
2023/09/29 12:27:50;;;;;;;5.88;1.88;;;17.40;99.90;;;;;;5010272;28;20038;-58
2023/09/29 12:30:21;;;;;;;5.72;1.40;;;17.20;99.90;;;;;;5030966;28;20069;-58
2023/09/29 12:32:47;;;;;;;2.13;1.20;;;17.20;99.90;;;;;;5010511;28;20052;-58
2023/09/29 12:35:13;;;;;;;5.63;1.40;;;17.20;99.90;;;;;;5013029;28;20063;-58
2023/09/29 12:37:39;;;;;;;3.10;1.38;;;17.20;99.90;;;;;;5034104;28;20095;-57
2023/09/29 12:40:10;;;;;;;6.28;1.70;;;17.20;99.90;;;;;;5034136;28;20041;-58